Time;durP1;ratioP1;P1;durP2;ratioP2;P2;SDS_P1;SDS_P2;PMS_P1;PMS_P2;Temp;Humidity;BMP_temperature;BMP_pressure;BME280_temperature;BME280_humidity;BME280_pressure;Samples;Min_cycle;Max_cycle;Signal;HPM_P1;HPM_P2
2021/08/26 00:06:45;;;;;;;21.67;9.23;;;;;;;;;;5048975;28;20055;-60
2021/08/26 00:09:11;;;;;;;19.02;8.30;;;;;;;;;;5047853;28;20025;-60
2021/08/26 00:11:38;;;;;;;23.85;9.50;;;;;;;;;;5050069;28;20098;-60
2021/08/26 00:14:05;;;;;;;20.20;9.05;;;;;;;;;;5049261;28;20040;-60
2021/08/26 00:16:32;;;;;;;20.08;8.80;;;;;;;;;;5050936;28;20107;-60
2021/08/26 00:18:57;;;;;;;23.27;9.55;;;;;;;;;;5049333;28;20033;-60
2021/08/26 00:21:23;;;;;;;21.20;9.30;;;;;;;;;;5049590;28;20036;-60
2021/08/26 00:23:48;;;;;;;17.75;8.60;;;;;;;;;;5050503;28;20107;-60
2021/08/26 00:26:14;;;;;;;16.98;8.18;;;;;;;;;;5049805;28;20335;-60
2021/08/26 00:28:40;;;;;;;16.90;8.07;;;;;;;;;;5047432;28;20056;-60
2021/08/26 00:31:06;;;;;;;16.40;8.88;;;;;;;;;;5049178;28;20400;-60
2021/08/26 00:33:31;;;;;;;19.00;8.65;;;;;;;;;;5050178;28;20032;-60
2021/08/26 00:36:00;;;;;;;18.58;8.65;;;;;;;;;;5048850;28;20039;-60
2021/08/26 00:38:25;;;;;;;20.83;9.02;;;;;;;;;;5048181;28;20038;-60
2021/08/26 00:40:52;;;;;;;19.85;8.85;;;;;;;;;;5048679;28;20021;-60
2021/08/26 00:43:18;;;;;;;20.13;9.18;;;;;;;;;;5047640;28;20035;-59
2021/08/26 00:45:45;;;;;;;18.48;8.68;;;;;;;;;;5063200;28;20470;-60
2021/08/26 00:48:11;;;;;;;19.42;9.07;;;;;;;;;;5047283;28;20021;-60
2021/08/26 00:50:36;;;;;;;19.33;8.85;;;;;;;;;;5046907;28;20029;-60
2021/08/26 00:53:02;;;;;;;20.67;9.32;;;;;;;;;;5046678;28;20036;-61
2021/08/26 00:55:27;;;;;;;19.80;9.70;;;;;;;;;;5047460;28;20037;-60
2021/08/26 00:57:53;;;;;;;18.67;8.45;;;;;;;;;;5050647;28;20036;-60
2021/08/26 01:00:19;;;;;;;20.38;9.40;;;;;;;;;;5046706;28;20025;-60
2021/08/26 01:03:02;;;;;;;17.65;8.93;;;;;;;;;;5047146;28;20111;-60
2021/08/26 01:05:43;;;;;;;19.88;8.85;;;;;;;;;;5048371;28;20496;-60
2021/08/26 01:08:17;;;;;;;17.83;8.70;;;;;;;;;;5042263;28;20052;-60
2021/08/26 01:10:44;;;;;;;20.88;8.98;;;;;;;;;;5047708;28;20025;-60
2021/08/26 01:13:10;;;;;;;19.90;8.50;;;;;;;;;;5046974;28;20100;-60
2021/08/26 01:15:35;;;;;;;17.73;8.70;;;;;;;;;;5063188;28;20056;-60
2021/08/26 01:18:01;;;;;;;16.98;8.70;;;;;;;;;;5047344;28;20064;-60
2021/08/26 01:20:27;;;;;;;15.82;8.82;;;;;;;;;;5053474;28;20028;-59
2021/08/26 01:22:53;;;;;;;16.73;8.82;;;;;;;;;;5048161;28;20028;-60
2021/08/26 01:25:22;;;;;;;21.15;9.35;;;;;;;;;;5052414;28;20032;-60
2021/08/26 01:27:51;;;;;;;;;;;;;;;;;;5047266;28;20108;-59
2021/08/26 01:30:20;;;;;;;19.80;8.75;;;;;;;;;;5049322;28;19939;-59
2021/08/26 01:32:49;;;;;;;20.17;9.07;;;;;;;;;;5049758;28;20423;-60
2021/08/26 01:35:14;;;;;;;18.73;9.35;;;;;;;;;;5048988;28;20092;-60
2021/08/26 01:37:40;;;;;;;18.77;9.43;;;;;;;;;;5051528;28;20279;-59
2021/08/26 01:40:07;;;;;;;19.23;9.25;;;;;;;;;;5045548;28;20031;-60
2021/08/26 01:42:32;;;;;;;19.50;8.77;;;;;;;;;;5051381;28;20032;-60
2021/08/26 01:44:58;;;;;;;18.70;8.70;;;;;;;;;;5045520;28;20029;-59
2021/08/26 01:47:24;;;;;;;16.25;8.20;;;;;;;;;;5046354;28;20028;-59
2021/08/26 01:49:53;;;;;;;20.33;9.18;;;;;;;;;;5045115;28;20087;-59
2021/08/26 01:52:26;;;;;;;15.82;8.65;;;;;;;;;;5045687;28;20082;-59
2021/08/26 01:54:56;;;;;;;17.92;8.48;;;;;;;;;;5045096;28;20040;-59
2021/08/26 01:57:23;;;;;;;21.75;9.35;;;;;;;;;;5046264;28;20036;-59
2021/08/26 01:59:49;;;;;;;17.92;8.77;;;;;;;;;;5045701;28;20029;-60
2021/08/26 02:02:14;;;;;;;21.70;9.15;;;;;;;;;;5044724;28;20034;-59
2021/08/26 02:04:40;;;;;;;18.05;8.43;;;;;;;;;;5047526;28;20081;-59
2021/08/26 02:07:06;;;;;;;16.88;8.73;;;;;;;;;;5045933;28;20048;-59
2021/08/26 02:09:31;;;;;;;21.10;9.25;;;;;;;;;;5045735;28;20480;-59
2021/08/26 02:11:56;;;;;;;20.48;9.05;;;;;;;;;;5047897;28;20513;-59
2021/08/26 02:14:22;;;;;;;17.33;8.68;;;;;;;;;;5048185;28;20028;-60
2021/08/26 02:16:47;;;;;;;18.67;9.20;;;;;;;;;;5048235;28;20108;-59
2021/08/26 02:19:13;;;;;;;17.60;8.93;;;;;;;;;;5051148;28;20052;-59
2021/08/26 02:21:38;;;;;;;19.95;9.00;;;;;;;;;;5050030;28;20020;-59
2021/08/26 02:24:04;;;;;;;17.73;8.70;;;;;;;;;;5053082;28;20081;-59
2021/08/26 02:26:31;;;;;;;20.10;9.57;;;;;;;;;;5048510;28;20037;-59
2021/08/26 02:28:56;;;;;;;16.23;8.60;;;;;;;;;;5048792;28;20040;-59
2021/08/26 02:31:22;;;;;;;19.75;9.40;;;;;;;;;;5049560;28;20033;-60
2021/08/26 02:33:47;;;;;;;18.92;8.93;;;;;;;;;;5049590;28;20021;-59
2021/08/26 02:36:13;;;;;;;18.02;9.05;;;;;;;;;;5050547;28;20025;-59
2021/08/26 02:38:38;;;;;;;19.00;8.98;;;;;;;;;;5049785;28;20139;-59
2021/08/26 02:41:04;;;;;;;21.52;9.95;;;;;;;;;;5051325;28;20017;-59
2021/08/26 02:43:29;;;;;;;18.92;8.88;;;;;;;;;;5049154;28;20039;-59
2021/08/26 02:45:55;;;;;;;20.33;9.82;;;;;;;;;;5050811;28;20047;-60
2021/08/26 02:48:20;;;;;;;22.00;10.18;;;;;;;;;;5049241;28;20020;-60
2021/08/26 02:50:45;;;;;;;17.35;9.55;;;;;;;;;;5050427;28;20415;-59
2021/08/26 02:53:11;;;;;;;20.50;9.63;;;;;;;;;;5048701;28;20120;-60
2021/08/26 02:55:36;;;;;;;21.67;10.40;;;;;;;;;;5050277;28;20028;-59
2021/08/26 02:58:02;;;;;;;21.10;10.32;;;;;;;;;;5048822;28;20056;-59
2021/08/26 03:00:27;;;;;;;20.25;10.73;;;;;;;;;;5048126;28;20108;-59
2021/08/26 03:02:53;;;;;;;22.27;9.68;;;;;;;;;;5048752;28;20017;-59
2021/08/26 03:05:18;;;;;;;21.05;10.00;;;;;;;;;;5050638;28;20518;-59
2021/08/26 03:07:44;;;;;;;20.52;11.07;;;;;;;;;;5048987;28;20021;-59
2021/08/26 03:10:09;;;;;;;24.40;11.48;;;;;;;;;;5050784;28;20025;-60
2021/08/26 03:12:35;;;;;;;19.60;9.73;;;;;;;;;;5050613;28;20024;-59
2021/08/26 03:15:00;;;;;;;19.05;10.10;;;;;;;;;;5051759;28;20579;-59
2021/08/26 03:17:26;;;;;;;21.63;10.77;;;;;;;;;;5052294;28;20039;-59
2021/08/26 03:19:51;;;;;;;22.45;9.73;;;;;;;;;;5049098;28;20100;-60
2021/08/26 03:22:17;;;;;;;22.10;10.50;;;;;;;;;;5048195;28;20035;-60
2021/08/26 03:24:42;;;;;;;21.92;9.68;;;;;;;;;;5032567;28;21267;-59
2021/08/26 03:27:08;;;;;;;23.88;9.93;;;;;;;;;;5049241;28;20025;-60
2021/08/26 03:29:33;;;;;;;19.80;9.77;;;;;;;;;;5050421;28;20029;-59
2021/08/26 03:31:58;;;;;;;21.42;9.52;;;;;;;;;;5046774;28;20082;-60
2021/08/26 03:34:24;;;;;;;21.83;10.07;;;;;;;;;;5064704;28;20518;-59
2021/08/26 03:36:49;;;;;;;19.05;10.00;;;;;;;;;;5070977;28;20039;-60
2021/08/26 03:39:15;;;;;;;19.40;9.20;;;;;;;;;;5051499;28;20032;-59
2021/08/26 03:41:40;;;;;;;21.00;9.93;;;;;;;;;;5053624;28;20597;-59
2021/08/26 03:44:05;;;;;;;19.65;10.20;;;;;;;;;;5048729;28;20039;-59
2021/08/26 03:46:31;;;;;;;20.58;9.68;;;;;;;;;;5047094;28;20103;-59
2021/08/26 03:48:57;;;;;;;19.13;10.35;;;;;;;;;;5049885;28;20556;-60
2021/08/26 03:51:22;;;;;;;18.92;9.07;;;;;;;;;;5049173;28;20078;-60
2021/08/26 03:53:48;;;;;;;22.63;11.00;;;;;;;;;;5046900;28;20048;-59
2021/08/26 03:56:13;;;;;;;22.73;10.57;;;;;;;;;;5049616;28;20032;-60
2021/08/26 03:58:39;;;;;;;21.20;10.43;;;;;;;;;;5031561;28;20162;-60
2021/08/26 04:01:05;;;;;;;23.20;10.48;;;;;;;;;;5048439;28;20033;-60
2021/08/26 04:03:31;;;;;;;20.13;10.35;;;;;;;;;;5062814;28;20036;-59
2021/08/26 04:05:57;;;;;;;21.60;10.38;;;;;;;;;;5051783;28;20040;-59
2021/08/26 04:08:23;;;;;;;18.38;9.32;;;;;;;;;;5048265;28;20025;-59
2021/08/26 04:10:48;;;;;;;21.10;10.00;;;;;;;;;;5048835;28;20434;-59
2021/08/26 04:13:14;;;;;;;19.00;9.02;;;;;;;;;;5049473;28;20102;-59
2021/08/26 04:15:39;;;;;;;18.58;9.40;;;;;;;;;;5049065;28;20246;-59
2021/08/26 04:18:05;;;;;;;17.70;8.82;;;;;;;;;;5046900;28;20032;-60
2021/08/26 04:20:30;;;;;;;20.52;10.05;;;;;;;;;;5051714;28;20040;-59
2021/08/26 04:22:56;;;;;;;21.70;10.20;;;;;;;;;;5054825;28;20020;-59
2021/08/26 04:25:21;;;;;;;19.48;10.50;;;;;;;;;;5047188;28;20465;-60
2021/08/26 04:27:46;;;;;;;19.20;10.38;;;;;;;;;;5047053;28;20029;-60
2021/08/26 04:30:12;;;;;;;24.48;11.70;;;;;;;;;;5048815;28;20029;-59
2021/08/26 04:32:38;;;;;;;21.63;10.25;;;;;;;;;;5048907;28;20040;-59
2021/08/26 04:35:03;;;;;;;24.33;11.63;;;;;;;;;;5050862;28;20029;-59
2021/08/26 04:37:29;;;;;;;26.77;13.07;;;;;;;;;;5048439;28;20339;-59
2021/08/26 04:39:55;;;;;;;25.70;12.43;;;;;;;;;;5047389;28;20138;-59
2021/08/26 04:42:21;;;;;;;27.83;13.52;;;;;;;;;;5045159;28;20024;-59
2021/08/26 04:44:46;;;;;;;20.95;11.25;;;;;;;;;;5053600;28;20507;-59
2021/08/26 04:47:11;;;;;;;25.48;11.60;;;;;;;;;;5047924;28;20028;-59
2021/08/26 04:49:37;;;;;;;25.83;12.45;;;;;;;;;;5048370;28;20463;-59
2021/08/26 04:52:03;;;;;;;24.30;12.40;;;;;;;;;;5046769;28;20031;-59
2021/08/26 04:54:28;;;;;;;23.52;12.40;;;;;;;;;;5049157;28;20040;-59
2021/08/26 04:56:54;;;;;;;22.35;12.57;;;;;;;;;;5047290;28;20024;-59
2021/08/26 04:59:19;;;;;;;21.45;12.00;;;;;;;;;;5046342;28;20124;-59
2021/08/26 05:01:45;;;;;;;24.55;11.80;;;;;;;;;;5047080;28;20095;-59
2021/08/26 05:04:10;;;;;;;22.00;11.30;;;;;;;;;;5047667;28;20491;-59
2021/08/26 05:06:35;;;;;;;19.90;11.30;;;;;;;;;;5046855;28;20033;-59
2021/08/26 05:09:01;;;;;;;23.30;12.10;;;;;;;;;;5046931;28;20025;-59
2021/08/26 05:11:26;;;;;;;23.25;11.50;;;;;;;;;;5050756;28;20422;-59
2021/08/26 05:13:52;;;;;;;21.23;11.55;;;;;;;;;;5046795;28;20043;-59
2021/08/26 05:16:17;;;;;;;22.77;11.40;;;;;;;;;;5048431;28;20068;-58
2021/08/26 05:18:43;;;;;;;21.80;11.55;;;;;;;;;;5048478;28;20066;-58
2021/08/26 05:21:08;;;;;;;23.63;12.05;;;;;;;;;;5049443;28;20021;-58
2021/08/26 05:23:34;;;;;;;21.13;10.95;;;;;;;;;;5047386;28;20029;-59
2021/08/26 05:26:00;;;;;;;22.38;11.02;;;;;;;;;;5045067;28;20025;-59
2021/08/26 05:28:25;;;;;;;21.45;12.48;;;;;;;;;;5046773;28;20035;-59
2021/08/26 05:30:51;;;;;;;23.27;11.90;;;;;;;;;;5047755;28;20024;-59
2021/08/26 05:33:16;;;;;;;22.13;10.80;;;;;;;;;;5044262;28;20036;-59
2021/08/26 05:35:41;;;;;;;22.15;10.73;;;;;;;;;;5048443;28;20033;-59
2021/08/26 05:38:07;;;;;;;21.48;11.18;;;;;;;;;;5047268;28;20064;-60
2021/08/26 05:40:32;;;;;;;19.13;11.20;;;;;;;;;;5045925;28;20056;-59
2021/08/26 05:42:58;;;;;;;21.15;10.60;;;;;;;;;;5050425;28;20047;-59
2021/08/26 05:45:23;;;;;;;27.83;13.55;;;;;;;;;;5047847;28;20039;-59
2021/08/26 05:47:54;;;;;;;24.10;12.43;;;;;;;;;;5046513;28;20039;-59
2021/08/26 05:50:23;;;;;;;24.17;11.63;;;;;;;;;;5047746;28;20495;-59
2021/08/26 05:52:50;;;;;;;25.03;10.93;;;;;;;;;;5045985;28;20036;-58
2021/08/26 05:55:16;;;;;;;31.85;15.07;;;;;;;;;;5048091;28;20090;-58
2021/08/26 05:57:42;;;;;;;25.95;12.43;;;;;;;;;;5053748;28;20503;-58
2021/08/26 06:00:08;;;;;;;33.10;14.82;;;;;;;;;;5050497;28;20032;-57
2021/08/26 06:02:33;;;;;;;22.23;10.68;;;;;;;;;;5049484;28;20037;-59
2021/08/26 06:04:59;;;;;;;24.33;13.40;;;;;;;;;;5049366;28;20033;-58
2021/08/26 06:07:24;;;;;;;32.95;14.75;;;;;;;;;;5048124;28;20025;-58
2021/08/26 06:09:49;;;;;;;24.48;11.40;;;;;;;;;;5051033;28;20037;-58
2021/08/26 06:12:15;;;;;;;23.20;11.07;;;;;;;;;;5048907;28;20039;-58
2021/08/26 06:14:40;;;;;;;21.67;10.75;;;;;;;;;;5052599;28;20021;-58
2021/08/26 06:17:06;;;;;;;20.95;10.95;;;;;;;;;;5050714;28;20021;-58
2021/08/26 06:19:31;;;;;;;25.45;12.15;;;;;;;;;;5056380;28;20532;-58
2021/08/26 06:21:57;;;;;;;23.65;11.52;;;;;;;;;;5050532;28;20060;-58
2021/08/26 06:24:22;;;;;;;21.48;10.77;;;;;;;;;;5051847;28;20394;-58
2021/08/26 06:26:48;;;;;;;20.58;10.95;;;;;;;;;;5052693;28;20070;-59
2021/08/26 06:29:13;;;;;;;17.10;10.52;;;;;;;;;;5047956;28;20025;-59
2021/08/26 06:31:39;;;;;;;18.85;10.00;;;;;;;;;;5049099;28;20021;-58
2021/08/26 06:34:05;;;;;;;19.83;9.82;;;;;;;;;;5052415;28;20136;-59
2021/08/26 06:36:30;;;;;;;23.33;9.88;;;;;;;;;;5049933;28;20071;-58
2021/08/26 06:38:58;;;;;;;19.77;9.93;;;;;;;;;;5051081;28;20095;-58
2021/08/26 06:41:23;;;;;;;22.67;10.02;;;;;;;;;;5054543;28;20032;-58
2021/08/26 06:43:49;;;;;;;23.25;10.75;;;;;;;;;;5049812;28;20021;-58
2021/08/26 06:46:14;;;;;;;22.58;10.68;;;;;;;;;;5052683;28;20135;-58
2021/08/26 06:48:40;;;;;;;17.85;10.50;;;;;;;;;;5049868;28;20049;-59
2021/08/26 06:51:05;;;;;;;24.90;10.52;;;;;;;;;;5050205;28;20025;-59
2021/08/26 06:53:30;;;;;;;20.75;11.40;;;;;;;;;;5048907;28;20449;-59
2021/08/26 06:55:56;;;;;;;18.05;10.68;;;;;;;;;;5049951;28;20171;-58
2021/08/26 06:58:21;;;;;;;17.20;9.80;;;;;;;;;;5051720;28;20456;-58
2021/08/26 07:00:46;;;;;;;19.27;9.88;;;;;;;;;;5049581;28;20032;-58
2021/08/26 07:03:12;;;;;;;21.67;9.88;;;;;;;;;;5051413;28;20016;-59
2021/08/26 07:05:37;;;;;;;20.38;10.05;;;;;;;;;;5048552;28;20423;-58
2021/08/26 07:08:03;;;;;;;17.73;10.02;;;;;;;;;;5048141;28;20506;-59
2021/08/26 07:10:29;;;;;;;20.25;10.75;;;;;;;;;;5050353;28;20087;-59
2021/08/26 07:12:54;;;;;;;19.40;10.85;;;;;;;;;;5050804;28;20024;-59
2021/08/26 07:15:24;;;;;;;19.25;9.65;;;;;;;;;;5048982;28;20499;-59
2021/08/26 07:17:49;;;;;;;20.27;10.65;;;;;;;;;;5048388;28;20024;-59
2021/08/26 07:20:15;;;;;;;17.65;10.05;;;;;;;;;;5052181;28;20068;-59
2021/08/26 07:22:41;;;;;;;21.52;10.50;;;;;;;;;;5049463;28;20032;-59
2021/08/26 07:25:06;;;;;;;20.10;10.82;;;;;;;;;;5050768;28;20157;-59
2021/08/26 07:27:32;;;;;;;22.48;10.48;;;;;;;;;;5049699;28;20066;-59
2021/08/26 07:29:57;;;;;;;18.73;10.90;;;;;;;;;;5051656;28;20021;-59
2021/08/26 07:32:23;;;;;;;24.25;10.18;;;;;;;;;;5047961;28;20495;-59
2021/08/26 07:34:48;;;;;;;23.00;10.98;;;;;;;;;;5050599;28;20041;-59
2021/08/26 07:37:14;;;;;;;21.02;10.65;;;;;;;;;;5047690;28;20111;-59
2021/08/26 07:39:39;;;;;;;22.95;11.10;;;;;;;;;;5047823;28;20017;-59
2021/08/26 07:42:05;;;;;;;19.75;9.90;;;;;;;;;;5048676;28;20080;-59
2021/08/26 07:44:30;;;;;;;19.38;9.90;;;;;;;;;;5049945;28;20508;-59
2021/08/26 07:46:55;;;;;;;24.48;11.05;;;;;;;;;;5051486;28;20052;-59
2021/08/26 07:49:21;;;;;;;21.73;10.35;;;;;;;;;;5046632;28;20033;-59
2021/08/26 07:51:46;;;;;;;23.50;10.20;;;;;;;;;;5047622;28;20035;-59
2021/08/26 07:54:12;;;;;;;19.55;10.27;;;;;;;;;;5049060;28;20250;-59
2021/08/26 07:56:38;;;;;;;23.30;11.73;;;;;;;;;;5048488;28;20024;-59
2021/08/26 07:59:04;;;;;;;21.25;11.80;;;;;;;;;;5046967;28;20048;-59
2021/08/26 08:01:29;;;;;;;19.88;11.00;;;;;;;;;;5047025;28;20059;-59
2021/08/26 08:03:54;;;;;;;18.85;10.30;;;;;;;;;;5049059;28;20492;-59
2021/08/26 08:06:20;;;;;;;19.45;10.80;;;;;;;;;;5049984;28;20400;-59
2021/08/26 08:08:45;;;;;;;19.30;10.48;;;;;;;;;;5048089;28;20055;-59
2021/08/26 08:11:11;;;;;;;23.75;11.00;;;;;;;;;;5048868;28;20108;-59
2021/08/26 08:13:36;;;;;;;20.25;11.02;;;;;;;;;;5049516;28;20337;-59
2021/08/26 08:16:03;;;;;;;19.88;11.13;;;;;;;;;;5049293;28;20035;-59
2021/08/26 08:18:29;;;;;;;21.67;11.25;;;;;;;;;;5048747;28;20335;-59
2021/08/26 08:20:55;;;;;;;21.65;12.00;;;;;;;;;;5049943;28;20017;-59
2021/08/26 08:23:20;;;;;;;21.98;11.80;;;;;;;;;;5050429;28;20373;-59
2021/08/26 08:25:45;;;;;;;23.58;12.40;;;;;;;;;;5049251;28;20586;-59
2021/08/26 08:28:16;;;;;;;22.58;11.80;;;;;;;;;;5050336;28;20025;-59
2021/08/26 08:30:42;;;;;;;22.63;12.18;;;;;;;;;;5047420;28;20029;-59
2021/08/26 08:33:08;;;;;;;24.98;12.32;;;;;;;;;;5047923;28;20120;-59
2021/08/26 08:35:33;;;;;;;18.63;10.82;;;;;;;;;;5049379;28;20029;-59
2021/08/26 08:37:59;;;;;;;22.42;11.63;;;;;;;;;;5048380;28;20426;-59
2021/08/26 08:40:25;;;;;;;26.60;12.38;;;;;;;;;;5049669;28;20037;-59
2021/08/26 08:42:52;;;;;;;22.70;12.45;;;;;;;;;;5047794;28;20044;-59
2021/08/26 08:45:17;;;;;;;23.23;12.15;;;;;;;;;;5063063;28;20021;-59
2021/08/26 08:47:45;;;;;;;21.48;11.40;;;;;;;;;;5046895;28;20052;-59
2021/08/26 08:50:11;;;;;;;31.23;13.43;;;;;;;;;;5050565;28;20067;-59
2021/08/26 08:52:38;;;;;;;25.38;12.27;;;;;;;;;;5046950;28;20395;-59
2021/08/26 08:55:08;;;;;;;19.33;10.93;;;;;;;;;;5047413;28;20064;-59
2021/08/26 08:57:36;;;;;;;46.95;19.92;;;;;;;;;;5048585;28;20133;-59
2021/08/26 09:00:06;;;;;;;33.30;14.30;;;;;;;;;;5045875;28;20061;-59
2021/08/26 09:02:31;;;;;;;42.33;16.48;;;;;;;;;;5046564;28;20112;-59
2021/08/26 09:04:58;;;;;;;28.75;13.73;;;;;;;;;;5047764;28;20941;-59
2021/08/26 09:07:32;;;;;;;24.00;12.63;;;;;;;;;;5046307;28;20033;-59
2021/08/26 09:09:59;;;;;;;35.25;14.15;;;;;;;;;;5046047;28;20063;-59
2021/08/26 09:12:45;;;;;;;26.45;13.88;;;;;;;;;;5051205;28;20038;-59
2021/08/26 09:15:16;;;;;;;23.70;12.70;;;;;;;;;;5045678;28;20032;-59
2021/08/26 09:17:44;;;;;;;26.00;11.75;;;;;;;;;;5048316;28;20399;-60
2021/08/26 09:20:13;;;;;;;24.48;11.70;;;;;;;;;;5046191;28;20024;-59
2021/08/26 09:22:39;;;;;;;27.83;11.83;;;;;;;;;;5045690;28;20115;-59
2021/08/26 09:25:06;;;;;;;22.13;11.68;;;;;;;;;;5048347;28;20556;-59
2021/08/26 09:27:31;;;;;;;22.60;11.93;;;;;;;;;;5050744;28;20033;-59
2021/08/26 09:30:08;;;;;;;22.33;11.77;;;;;;;;;;5046395;28;20098;-59
2021/08/26 09:32:35;;;;;;;27.23;13.35;;;;;;;;;;5046398;28;20051;-59
2021/08/26 09:35:14;;;;;;;21.48;12.38;;;;;;;;;;5046141;28;20116;-59
2021/08/26 09:37:51;;;;;;;22.03;12.17;;;;;;;;;;5047228;28;20112;-59
2021/08/26 09:40:20;;;;;;;24.05;13.70;;;;;;;;;;5045031;28;20287;-59
2021/08/26 09:43:05;;;;;;;24.05;12.60;;;;;;;;;;5048043;28;20028;-59
2021/08/26 09:45:36;;;;;;;22.73;13.40;;;;;;;;;;5046932;28;20040;-59
2021/08/26 09:48:11;;;;;;;25.27;15.05;;;;;;;;;;5048669;28;20052;-59
2021/08/26 09:50:49;;;;;;;26.25;15.27;;;;;;;;;;5045597;28;20025;-59
2021/08/26 09:53:25;;;;;;;30.25;15.60;;;;;;;;;;5048320;28;20036;-59
2021/08/26 09:56:04;;;;;;;31.55;17.20;;;;;;;;;;5046609;28;20025;-59
2021/08/26 09:58:32;;;;;;;35.60;17.47;;;;;;;;;;5043537;28;20039;-59
2021/08/26 10:01:04;;;;;;;30.25;17.63;;;;;;;;;;5044569;28;20051;-58
2021/08/26 10:03:30;;;;;;;31.33;17.67;;;;;;;;;;5047566;28;20082;-59
2021/08/26 10:05:57;;;;;;;37.70;18.67;;;;;;;;;;5047509;28;20032;-59
2021/08/26 10:08:22;;;;;;;34.65;19.88;;;;;;;;;;5046203;28;20025;-58
2021/08/26 10:10:48;;;;;;;29.88;18.00;;;;;;;;;;5048145;28;20543;-58
2021/08/26 10:13:13;;;;;;;33.40;18.73;;;;;;;;;;5046814;28;20021;-58
2021/08/26 10:15:39;;;;;;;31.15;20.10;;;;;;;;;;5047584;28;20028;-58
2021/08/26 10:18:05;;;;;;;35.42;21.13;;;;;;;;;;5045999;28;20052;-59
2021/08/26 10:20:31;;;;;;;40.45;22.48;;;;;;;;;;5047739;28;20021;-58
2021/08/26 10:22:57;;;;;;;32.10;18.45;;;;;;;;;;5044819;28;20043;-58
2021/08/26 10:25:23;;;;;;;40.20;21.23;;;;;;;;;;5049103;28;20039;-58
2021/08/26 10:27:51;;;;;;;39.28;22.45;;;;;;;;;;5046945;28;20033;-58
2021/08/26 10:30:37;;;;;;;34.40;20.48;;;;;;;;;;5046564;28;20029;-58
2021/08/26 10:33:26;;;;;;;36.58;21.85;;;;;;;;;;5047614;28;20091;-59
2021/08/26 10:35:52;;;;;;;39.50;21.08;;;;;;;;;;5043789;28;20127;-59
2021/08/26 10:38:25;;;;;;;36.60;21.27;;;;;;;;;;5047284;28;20117;-59
2021/08/26 10:40:50;;;;;;;39.78;22.20;;;;;;;;;;5047661;28;20055;-58
2021/08/26 10:43:34;;;;;;;35.15;20.85;;;;;;;;;;5049943;28;20057;-58
2021/08/26 10:45:59;;;;;;;41.17;23.15;;;;;;;;;;5049386;28;20038;-59
2021/08/26 10:48:25;;;;;;;37.17;21.30;;;;;;;;;;5049346;28;20029;-59
2021/08/26 10:51:17;;;;;;;33.20;21.65;;;;;;;;;;5049147;28;20424;-58
2021/08/26 10:53:49;;;;;;;36.10;21.50;;;;;;;;;;5049124;28;20028;-58
2021/08/26 10:56:22;;;;;;;33.05;20.88;;;;;;;;;;5047919;28;20071;-59
2021/08/26 10:58:57;;;;;;;37.75;21.80;;;;;;;;;;5048465;28;20025;-59
2021/08/26 11:01:34;;;;;;;32.97;19.65;;;;;;;;;;5048145;28;20032;-59
2021/08/26 11:04:06;;;;;;;25.35;17.05;;;;;;;;;;5064868;28;20724;-58
2021/08/26 11:06:36;;;;;;;21.83;15.60;;;;;;;;;;5053479;28;20029;-58
2021/08/26 11:09:11;;;;;;;23.33;14.40;;;;;;;;;;5050115;28;20024;-59
2021/08/26 11:11:39;;;;;;;23.70;15.32;;;;;;;;;;5049735;28;20033;-58
2021/08/26 11:14:07;;;;;;;20.27;13.68;;;;;;;;;;5049204;28;20047;-59
2021/08/26 11:16:39;;;;;;;17.83;11.70;;;;;;;;;;5052595;28;20024;-58
2021/08/26 11:19:04;;;;;;;17.63;11.32;;;;;;;;;;5048587;28;20448;-59
2021/08/26 11:21:45;;;;;;;16.50;11.45;;;;;;;;;;5051702;28;20021;-59
2021/08/26 11:24:30;;;;;;;18.40;9.75;;;;;;;;;;5049735;28;20096;-58
2021/08/26 11:27:04;;;;;;;13.45;8.88;;;;;;;;;;5049288;28;20040;-58
2021/08/26 11:29:36;;;;;;;13.23;9.32;;;;;;;;;;5046293;28;20100;-58
2021/08/26 11:32:04;;;;;;;12.85;8.40;;;;;;;;;;5048641;28;20499;-58
2021/08/26 11:34:32;;;;;;;13.55;8.32;;;;;;;;;;5050624;28;20029;-59
2021/08/26 11:37:08;;;;;;;9.75;7.30;;;;;;;;;;5048220;28;20362;-58
2021/08/26 11:39:59;;;;;;;12.32;8.32;;;;;;;;;;5047514;28;20025;-59
2021/08/26 11:42:41;;;;;;;14.35;8.20;;;;;;;;;;5051245;28;20116;-58
2021/08/26 11:45:28;;;;;;;10.88;6.45;;;;;;;;;;5048564;28;20390;-59
2021/08/26 11:47:58;;;;;;;8.68;6.90;;;;;;;;;;5050079;28;20078;-58
2021/08/26 11:50:31;;;;;;;8.40;5.90;;;;;;;;;;5048863;28;20037;-58
2021/08/26 11:53:19;;;;;;;9.68;6.25;;;;;;;;;;5045418;28;20036;-58
2021/08/26 11:55:50;;;;;;;9.02;6.30;;;;;;;;;;5049672;28;20024;-58
2021/08/26 11:58:16;;;;;;;8.85;5.97;;;;;;;;;;5046683;28;20116;-59
2021/08/26 12:00:52;;;;;;;9.93;6.22;;;;;;;;;;5047702;28;20021;-58
2021/08/26 12:03:18;;;;;;;6.70;5.53;;;;;;;;;;5043391;28;20029;-58
2021/08/26 12:05:45;;;;;;;9.30;6.80;;;;;;;;;;5047612;28;20039;-58
2021/08/26 12:08:11;;;;;;;8.57;5.80;;;;;;;;;;5049719;28;20033;-59
2021/08/26 12:10:43;;;;;;;7.22;5.70;;;;;;;;;;5049926;28;20033;-58
2021/08/26 12:13:11;;;;;;;9.43;7.13;;;;;;;;;;5048693;28;20032;-59
2021/08/26 12:15:41;;;;;;;9.43;6.32;;;;;;;;;;5054581;28;20025;-59
2021/08/26 12:18:06;;;;;;;;;;;;;;;;;;5045233;28;20036;-59
2021/08/26 12:20:35;;;;;;;9.23;6.15;;;;;;;;;;5051010;28;19913;-59
2021/08/26 12:23:02;;;;;;;8.85;5.93;;;;;;;;;;5047633;28;20035;-59
2021/08/26 12:25:37;;;;;;;6.95;5.47;;;;;;;;;;5052512;28;20043;-58
2021/08/26 12:28:05;;;;;;;8.98;5.53;;;;;;;;;;5046517;28;20043;-58
2021/08/26 12:30:32;;;;;;;9.00;5.70;;;;;;;;;;5052268;28;20115;-59
2021/08/26 12:33:11;;;;;;;9.55;5.82;;;;;;;;;;5048573;28;20087;-59
2021/08/26 12:35:47;;;;;;;7.78;5.45;;;;;;;;;;5047519;28;20029;-59
2021/08/26 12:38:14;;;;;;;9.82;6.03;;;;;;;;;;5046796;28;20036;-59
2021/08/26 12:40:57;;;;;;;9.05;5.25;;;;;;;;;;5048177;28;20071;-61
2021/08/26 12:43:25;;;;;;;9.48;5.47;;;;;;;;;;5046752;28;20021;-58
2021/08/26 12:46:05;;;;;;;8.45;6.05;;;;;;;;;;5047640;28;20037;-59
2021/08/26 12:48:32;;;;;;;8.57;5.40;;;;;;;;;;5047228;28;20025;-59
2021/08/26 12:51:08;;;;;;;8.27;6.13;;;;;;;;;;5047570;28;20032;-58
2021/08/26 12:53:34;;;;;;;11.50;6.30;;;;;;;;;;5047593;28;20503;-59
2021/08/26 12:56:04;;;;;;;11.27;6.28;;;;;;;;;;5046929;28;20110;-59
2021/08/26 12:58:29;;;;;;;16.42;7.95;;;;;;;;;;5043229;28;20085;-59
2021/08/26 13:00:56;;;;;;;15.05;8.68;;;;;;;;;;5047691;28;20024;-58
2021/08/26 13:03:31;;;;;;;13.93;7.40;;;;;;;;;;5048161;28;20771;-59
2021/08/26 13:05:57;;;;;;;14.48;8.40;;;;;;;;;;5046230;28;20527;-58
2021/08/26 13:08:22;;;;;;;13.90;6.90;;;;;;;;;;5045843;28;20040;-59
2021/08/26 13:10:48;;;;;;;14.48;7.68;;;;;;;;;;5046784;28;20028;-59
2021/08/26 13:13:16;;;;;;;12.57;6.90;;;;;;;;;;5048497;28;20044;-59
2021/08/26 13:15:43;;;;;;;11.77;6.95;;;;;;;;;;5047189;28;20144;-59
2021/08/26 13:18:09;;;;;;;16.70;7.82;;;;;;;;;;5045749;28;20037;-59
2021/08/26 13:20:36;;;;;;;19.92;7.78;;;;;;;;;;5047298;28;20025;-59
2021/08/26 13:23:05;;;;;;;16.73;6.82;;;;;;;;;;5048594;28;20048;-59
2021/08/26 13:25:30;;;;;;;14.73;6.88;;;;;;;;;;5048888;28;20064;-59
2021/08/26 13:27:56;;;;;;;13.07;6.78;;;;;;;;;;5046599;28;20113;-59
2021/08/26 13:30:22;;;;;;;23.10;10.75;;;;;;;;;;5048975;28;20025;-59
2021/08/26 13:32:47;;;;;;;32.83;12.40;;;;;;;;;;5047159;28;20021;-59
2021/08/26 13:35:13;;;;;;;33.28;12.85;;;;;;;;;;5053030;28;20040;-59
2021/08/26 13:37:45;;;;;;;26.80;9.55;;;;;;;;;;5048126;28;20045;-59
2021/08/26 13:40:14;;;;;;;32.17;11.55;;;;;;;;;;5048630;28;20028;-59
2021/08/26 13:42:39;;;;;;;20.45;9.40;;;;;;;;;;5045364;28;20032;-58
2021/08/26 13:45:06;;;;;;;14.85;7.28;;;;;;;;;;5047054;28;20037;-59
2021/08/26 13:47:31;;;;;;;12.93;6.53;;;;;;;;;;5063598;28;20029;-59
2021/08/26 13:49:57;;;;;;;12.77;6.95;;;;;;;;;;5045856;28;20048;-59
2021/08/26 13:52:22;;;;;;;15.40;8.05;;;;;;;;;;5045372;28;20085;-59
2021/08/26 13:54:48;;;;;;;14.18;7.18;;;;;;;;;;5046049;28;20055;-59
2021/08/26 13:57:14;;;;;;;15.80;9.02;;;;;;;;;;5047137;28;20055;-59
2021/08/26 13:59:39;;;;;;;14.98;7.10;;;;;;;;;;5045963;28;20045;-59
2021/08/26 14:02:04;;;;;;;18.67;8.95;;;;;;;;;;5046510;28;20028;-59
2021/08/26 14:04:30;;;;;;;17.05;8.55;;;;;;;;;;5046927;28;20025;-59
2021/08/26 14:06:55;;;;;;;15.90;6.57;;;;;;;;;;5045648;28;20391;-59
2021/08/26 14:09:21;;;;;;;13.32;6.45;;;;;;;;;;5050550;28;20028;-59
2021/08/26 14:11:46;;;;;;;13.98;6.25;;;;;;;;;;5047551;28;20095;-59
2021/08/26 14:14:12;;;;;;;14.45;6.70;;;;;;;;;;5046578;28;20052;-59
2021/08/26 14:16:38;;;;;;;12.77;6.57;;;;;;;;;;5048199;28;20051;-59
2021/08/26 14:19:04;;;;;;;10.32;5.78;;;;;;;;;;5050839;28;20064;-59
2021/08/26 14:21:29;;;;;;;15.85;7.18;;;;;;;;;;5051276;28;20058;-59
2021/08/26 14:23:55;;;;;;;15.38;7.82;;;;;;;;;;5052854;28;20491;-59
2021/08/26 14:26:21;;;;;;;16.92;6.95;;;;;;;;;;5050330;28;20036;-59
2021/08/26 14:28:46;;;;;;;17.13;6.65;;;;;;;;;;5053089;28;20025;-59
2021/08/26 14:31:12;;;;;;;15.80;6.88;;;;;;;;;;5049168;28;20024;-59